MSC Mandraki — SZUH — position and weather

sailwx.info

Track history (hours):
 
Tides and Currents Weather Stations Pressure Air Temp Water Temp Dewpoint Dewpoint Depression Visibility Wind Speed Wind Dir Waves Ship Positions

MSC Mandraki

Last reported at 2014-Sep-14 06:12 UTC. Time now 2014-Sep-16 11:27 UTC.
Position S 37°14' E 150°29'.

Length 294 m; draft 12.2 m.

Type: Ship. MMSI: 240265000.

Date/timePositionNaut miles runAvg speedWind from/ knotsBaromVisibWave heightAir tempDewpointWater temp
2014-Sep-14 06:12S 37°14' E 150°29'1115.8
2014-Sep-14 05:31S 37°24' E 150°24'2115.4
2014-Sep-14 04:09S 37°44' E 150°17'10916.5
2014-Sep-13 21:33S 38°44' E 148°21'1918.5
2014-Sep-13 20:33S 38°52' E 147°59'2018.3
2014-Sep-13 19:29S 38°57' E 147°35'1718.0
2014-Sep-13 18:33S 39°01' E 147°14'1717.3
2014-Sep-13 17:33S 39°07' E 146°54'1616.2
2014-Sep-13 16:33S 39°17' E 146°37'1716.8
2014-Sep-13 15:33S 39°17' E 146°15'1717.0
2014-Sep-13 14:33S 39°18' E 145°53'19116.6
2014-Sep-13 03:03S 39°12' E 141°47'  
Track history (hours):
 
Tides and Currents Weather Stations Pressure Air Temp Water Temp Dewpoint Dewpoint Depression Visibility Wind Speed Wind Dir Waves Ship Positions

MSC Mandraki

Last reported at 2014-Sep-14 06:12 UTC. Time now 2014-Sep-16 11:27 UTC.
Position S 37°14' E 150°29'.

Length 294 m; draft 12.2 m.

Type: Ship. MMSI: 240265000.

Date/timePositionNaut miles runAvg speedWind from/ knotsBaromVisibWave heightAir tempDewpointWater temp
2014-Sep-14 06:12S 37°14' E 150°29'1115.8
2014-Sep-14 05:31S 37°24' E 150°24'2115.4
2014-Sep-14 04:09S 37°44' E 150°17'10916.5
2014-Sep-13 21:33S 38°44' E 148°21'1918.5
2014-Sep-13 20:33S 38°52' E 147°59'2018.3
2014-Sep-13 19:29S 38°57' E 147°35'1718.0
2014-Sep-13 18:33S 39°01' E 147°14'1717.3
2014-Sep-13 17:33S 39°07' E 146°54'1616.2
2014-Sep-13 16:33S 39°17' E 146°37'1716.8
2014-Sep-13 15:33S 39°17' E 146°15'1717.0
2014-Sep-13 14:33S 39°18' E 145°53'19116.6
2014-Sep-13 03:03S 39°12' E 141°47'  

Dump ship's entire track history